createdAt,value
2023-02-24T00:00:37.415Z,94692.00
2023-02-24T00:01:37.408Z,94692.00
2023-02-24T00:02:37.504Z,94690.00
2023-02-24T00:03:37.460Z,94692.00
2023-02-24T00:04:37.378Z,94692.00
2023-02-24T00:05:37.366Z,94690.00
2023-02-24T00:06:37.360Z,94688.00
2023-02-24T00:07:37.375Z,94688.00
2023-02-24T01:00:08.531Z,94672.00
2023-02-24T01:13:53.795Z,94660.00
2023-02-24T02:27:54.066Z,94592.00
2023-02-24T02:42:53.008Z,94597.00
2023-02-24T02:57:07.569Z,94597.00
2023-02-24T04:04:52.328Z,94578.00
2023-02-24T04:23:52.127Z,94562.00
2023-02-24T04:24:52.111Z,94560.00
2023-02-24T04:25:52.149Z,94560.00
2023-02-24T04:26:52.101Z,94560.00
2023-02-24T04:28:52.087Z,94556.00
2023-02-24T04:29:52.070Z,94556.00
2023-02-24T04:30:52.170Z,94556.00
2023-02-24T04:31:52.307Z,94554.00
2023-02-24T04:32:52.103Z,94554.00
2023-02-24T04:33:52.033Z,94554.00
2023-02-24T04:34:52.019Z,94552.00
2023-02-24T04:35:52.014Z,94550.00
2023-02-24T04:36:52.008Z,94547.00
2023-02-24T04:37:52.017Z,94547.00
2023-02-24T04:38:52.609Z,94543.00
2023-02-24T04:39:51.974Z,94543.00
2023-02-24T04:41:13.612Z,94541.00
2023-02-24T04:41:51.959Z,94539.00
2023-02-24T04:42:52.189Z,94541.00
2023-02-24T04:43:51.941Z,94541.00
2023-02-24T04:44:51.946Z,94541.00
2023-02-24T04:45:52.651Z,94537.00
2023-02-24T04:46:51.979Z,94533.00
2023-02-24T04:47:51.917Z,94531.00
2023-02-24T04:48:52.619Z,94529.00
2023-02-24T04:49:51.900Z,94529.00
2023-02-24T04:50:51.888Z,94521.00
2023-02-24T04:51:51.882Z,94527.00
2023-02-24T04:53:51.890Z,94523.00
2023-02-24T04:54:51.843Z,94523.00
2023-02-24T04:55:51.854Z,94515.00
2023-02-24T04:56:51.835Z,94513.00
2023-02-24T04:57:52.130Z,94519.00
2023-02-24T04:58:52.613Z,94515.00
2023-02-24T04:59:51.805Z,94513.00
2023-02-24T05:00:51.804Z,94513.00
2023-02-24T05:01:51.825Z,94509.00
2023-02-24T05:02:51.782Z,94507.00
2023-02-24T05:03:51.857Z,94503.00
2023-02-24T05:04:51.803Z,94501.00
2023-02-24T05:05:51.753Z,94501.00
2023-02-24T05:06:51.760Z,94503.00
2023-02-24T05:07:52.126Z,94500.00
2023-02-24T05:09:51.740Z,94500.00
2023-02-24T05:10:51.715Z,94498.00
2023-02-24T05:11:52.623Z,94498.00
2023-02-24T05:12:51.704Z,94496.00
2023-02-24T05:13:51.685Z,94494.00
2023-02-24T05:16:51.654Z,94492.00
2023-02-24T05:17:51.659Z,94490.00
2023-02-24T05:18:51.644Z,94492.00
2023-02-24T05:19:51.634Z,94488.00
2023-02-24T05:20:51.624Z,94490.00
2023-02-24T05:21:51.616Z,94488.00
2023-02-24T05:22:51.606Z,94490.00
2023-02-24T05:23:51.603Z,94490.00
2023-02-24T05:24:52.128Z,94488.00
2023-02-24T05:25:52.151Z,94490.00
2023-02-24T05:26:52.130Z,94490.00
2023-02-24T05:28:51.556Z,94490.00
2023-02-24T05:29:51.550Z,94492.00
2023-02-24T05:30:51.572Z,94488.00
2023-02-24T05:31:52.262Z,94490.00
2023-02-24T05:32:51.585Z,94488.00
2023-02-24T05:33:51.513Z,94490.00
2023-02-24T05:34:51.504Z,94486.00
2023-02-24T05:35:51.493Z,94488.00
2023-02-24T05:36:51.483Z,94484.00
2023-02-24T05:37:51.490Z,94486.00
2023-02-24T05:38:51.466Z,94482.00
2023-02-24T05:39:51.458Z,94482.00
2023-02-24T05:40:51.445Z,94478.00
2023-02-24T05:41:51.481Z,94478.00
2023-02-24T05:42:52.163Z,94472.00
2023-02-24T05:43:51.438Z,94470.00
2023-02-24T05:44:51.406Z,94466.00
2023-02-24T05:45:52.133Z,94464.00
2023-02-24T05:46:51.437Z,94464.00
2023-02-24T05:47:51.394Z,94464.00
2023-02-24T05:48:51.637Z,94464.00
2023-02-24T05:49:51.364Z,94464.00
2023-02-24T05:50:51.358Z,94464.00
2023-02-24T05:51:51.350Z,94462.00
2023-02-24T05:52:51.332Z,94464.00
2023-02-24T05:53:51.641Z,94466.00
2023-02-24T05:54:51.321Z,94462.00
2023-02-24T05:55:52.135Z,94462.00
2023-02-24T05:56:51.306Z,94462.00
2023-02-24T05:57:51.321Z,94464.00
2023-02-24T05:58:53.032Z,94466.00
2023-02-24T05:59:51.278Z,94466.00
2023-02-24T06:00:51.269Z,94464.00
2023-02-24T06:01:51.312Z,94464.00
2023-02-24T06:02:51.327Z,94462.00
2023-02-24T06:03:51.255Z,94464.00
2023-02-24T06:04:51.736Z,94464.00
2023-02-24T06:05:51.218Z,94464.00
2023-02-24T06:06:51.211Z,94464.00
2023-02-24T06:07:51.206Z,94462.00
2023-02-24T06:08:51.200Z,94460.00
2023-02-24T06:09:51.190Z,94464.00
2023-02-24T06:10:51.179Z,94460.00
2023-02-24T06:11:51.247Z,94464.00
2023-02-24T06:12:52.801Z,94464.00
2023-02-24T06:13:51.183Z,94468.00
2023-02-24T06:14:51.151Z,94462.00
2023-02-24T06:15:51.142Z,94462.00
2023-02-24T06:16:51.643Z,94462.00
2023-02-24T06:18:51.116Z,94468.00
2023-02-24T06:20:51.282Z,94468.00
2023-02-24T06:21:51.085Z,94468.00
2023-02-24T06:22:51.076Z,94466.00
2023-02-24T06:23:51.651Z,94474.00
2023-02-24T06:24:51.072Z,94472.00
2023-02-24T06:25:51.050Z,94472.00
2023-02-24T06:26:51.113Z,94476.00
2023-02-24T06:27:51.030Z,94472.00
2023-02-24T06:28:51.024Z,94476.00
2023-02-24T06:29:51.071Z,94478.00
2023-02-24T06:30:51.039Z,94480.00
2023-02-24T06:31:51.170Z,94480.00
2023-02-24T06:32:51.806Z,94480.00
2023-02-24T06:33:51.019Z,94476.00
2023-02-24T06:35:50.962Z,94476.00
2023-02-24T06:36:50.957Z,94474.00
2023-02-24T06:37:50.958Z,94474.00
2023-02-24T06:38:51.657Z,94472.00
2023-02-24T06:39:50.950Z,94474.00
2023-02-24T06:40:50.954Z,94470.00
2023-02-24T06:41:50.954Z,94472.00
2023-02-24T06:42:51.194Z,94472.00
2023-02-24T06:43:50.925Z,94472.00
2023-02-24T06:44:50.923Z,94470.00
2023-02-24T06:45:51.249Z,94470.00
2023-02-24T06:46:50.873Z,94468.00
2023-02-24T06:47:51.178Z,94466.00
2023-02-24T06:48:50.893Z,94470.00
2023-02-24T06:49:50.881Z,94468.00
2023-02-24T06:51:51.696Z,94462.00
2023-02-24T06:52:51.344Z,94466.00
2023-02-24T06:53:50.846Z,94464.00
2023-02-24T06:55:51.199Z,94466.00
2023-02-24T06:56:50.818Z,94466.00
2023-02-24T06:57:51.144Z,94466.00
2023-02-24T06:58:52.693Z,94466.00
2023-02-24T06:59:51.202Z,94466.00
2023-02-24T07:01:50.797Z,94462.00
2023-02-24T07:02:50.773Z,94462.00
2023-02-24T07:03:50.804Z,94462.00
2023-02-24T07:04:51.199Z,94458.00
2023-02-24T07:05:51.198Z,94462.00
2023-02-24T07:06:50.709Z,94460.00
2023-02-24T07:07:50.705Z,94462.00
2023-02-24T07:08:50.724Z,94464.00
2023-02-24T07:09:50.706Z,94462.00
2023-02-24T07:10:50.706Z,94464.00
2023-02-24T07:11:50.685Z,94462.00
2023-02-24T07:12:50.674Z,94462.00
2023-02-24T07:13:50.673Z,94462.00
2023-02-24T07:14:50.696Z,94462.00
2023-02-24T07:15:50.647Z,94464.00
2023-02-24T07:16:50.686Z,94458.00
2023-02-24T07:17:50.658Z,94462.00
2023-02-24T07:18:50.648Z,94458.00
2023-02-24T07:19:50.709Z,94460.00
2023-02-24T07:20:50.598Z,94458.00
2023-02-24T07:21:50.594Z,94458.00
2023-02-24T07:22:50.573Z,94456.00
2023-02-24T07:23:50.592Z,94456.00
2023-02-24T07:24:51.817Z,94456.00
2023-02-24T07:25:50.616Z,94456.00
2023-02-24T07:26:50.712Z,94452.00
2023-02-24T07:27:50.617Z,94450.00
2023-02-24T07:28:50.579Z,94450.00
2023-02-24T07:29:52.728Z,94450.00
2023-02-24T07:30:50.812Z,94450.00
2023-02-24T07:31:51.033Z,94452.00
2023-02-24T07:32:50.960Z,94446.00
2023-02-24T07:33:51.525Z,94445.00
2023-02-24T07:35:50.703Z,94441.00
2023-02-24T07:36:50.472Z,94439.00
2023-02-24T07:37:50.461Z,94441.00
2023-02-24T07:38:51.224Z,94441.00
2023-02-24T07:39:50.431Z,94439.00
2023-02-24T07:40:50.436Z,94439.00
2023-02-24T07:41:50.711Z,94439.00
2023-02-24T07:42:50.409Z,94437.00
2023-02-24T07:43:50.403Z,94439.00
2023-02-24T07:44:50.419Z,94433.00
2023-02-24T07:45:50.390Z,94431.00
2023-02-24T07:46:50.725Z,94433.00
2023-02-24T07:47:50.718Z,94431.00
2023-02-24T07:48:50.362Z,94427.00
2023-02-24T07:49:50.373Z,94425.00
2023-02-24T07:51:50.336Z,94425.00
2023-02-24T07:52:53.520Z,94427.00
2023-02-24T07:53:52.268Z,94425.00
2023-02-24T07:54:50.311Z,94423.00
2023-02-24T07:55:50.354Z,94423.00
2023-02-24T07:56:50.713Z,94423.00
2023-02-24T07:57:50.713Z,94421.00
2023-02-24T07:58:50.266Z,94423.00
2023-02-24T07:59:50.256Z,94419.00
2023-02-24T08:00:50.313Z,94421.00
2023-02-24T08:01:50.213Z,94417.00
2023-02-24T08:02:50.304Z,94419.00
2023-02-24T08:03:50.684Z,94419.00
2023-02-24T08:04:50.666Z,94417.00
2023-02-24T08:05:50.236Z,94415.00
2023-02-24T08:06:50.177Z,94415.00
2023-02-24T08:07:50.158Z,94413.00
2023-02-24T08:08:50.185Z,94411.00
2023-02-24T08:09:50.689Z,94409.00
2023-02-24T08:10:50.132Z,94409.00
2023-02-24T08:11:50.212Z,94403.00
2023-02-24T08:12:50.683Z,94405.00
2023-02-24T08:13:50.108Z,94399.00
2023-02-24T08:14:50.217Z,94399.00
2023-02-24T08:15:50.280Z,94396.00
2023-02-24T08:16:50.238Z,94398.00
2023-02-24T08:19:50.724Z,94394.00
2023-02-24T08:20:50.686Z,94394.00
2023-02-24T08:24:50.236Z,94392.00
2023-02-24T08:26:50.721Z,94388.00
2023-02-24T08:28:50.691Z,94386.00
2023-02-24T08:29:50.194Z,94376.00
2023-02-24T08:30:50.366Z,94374.00
2023-02-24T08:35:50.700Z,94374.00
2023-02-24T08:36:50.208Z,94376.00
2023-02-24T08:40:50.312Z,94370.00
2023-02-24T08:41:50.203Z,94368.00
2023-02-24T08:42:50.203Z,94368.00
2023-02-24T08:43:50.844Z,94366.00
2023-02-24T08:46:50.404Z,94362.00
2023-02-24T08:51:50.210Z,94353.00
2023-02-24T08:54:50.725Z,94349.00
2023-02-24T08:55:50.210Z,94345.00
2023-02-24T08:56:50.746Z,94343.00
2023-02-24T08:58:49.744Z,94343.00
2023-02-24T09:08:49.656Z,94333.00
2023-02-24T09:13:49.576Z,94329.00
2023-02-24T09:16:52.421Z,94321.00
2023-02-24T09:24:52.706Z,94309.00
2023-02-24T09:30:50.283Z,94296.00
2023-02-24T09:32:50.382Z,94292.00
2023-02-24T09:36:49.378Z,94286.00
2023-02-24T09:51:02.822Z,94255.00
2023-02-24T09:51:50.274Z,94253.00
2023-02-24T10:12:53.068Z,94204.00
2023-02-24T10:21:04.404Z,94186.00
2023-02-24T11:15:48.587Z,94043.00
2023-02-24T11:31:48.525Z,94006.00
2023-02-24T11:37:03.267Z,93998.00
2023-02-24T11:38:51.275Z,93992.00
2023-02-24T11:56:50.778Z,93961.00
2023-02-24T12:09:48.064Z,93933.00
2023-02-24T12:21:50.821Z,93919.00
2023-02-24T12:57:02.291Z,93845.00
2023-02-24T13:02:47.601Z,93835.00
2023-02-24T13:04:47.533Z,93832.00
2023-02-24T13:09:47.498Z,93824.00
2023-02-24T13:31:47.412Z,93798.00
2023-02-24T13:47:54.768Z,93773.00
2023-02-24T14:27:46.814Z,93718.00
2023-02-24T14:34:47.339Z,93708.00
2023-02-24T14:55:53.404Z,93690.00
2023-02-24T14:58:01.345Z,93684.00
2023-02-24T15:16:53.390Z,93679.00
2023-02-24T15:25:46.846Z,93679.00
2023-02-24T15:27:46.249Z,93679.00
2023-02-24T15:34:52.852Z,93681.00
2023-02-24T15:41:46.125Z,93679.00
2023-02-24T16:11:52.861Z,93653.00
2023-02-24T16:34:52.394Z,93659.00
2023-02-24T16:42:45.575Z,93661.00
2023-02-24T16:53:45.479Z,93667.00
2023-02-24T16:54:45.468Z,93667.00
2023-02-24T16:55:45.471Z,93667.00
2023-02-24T16:56:45.454Z,93661.00
2023-02-24T16:57:45.447Z,93663.00
2023-02-24T16:58:45.430Z,93667.00
2023-02-24T16:59:45.434Z,93661.00
2023-02-24T17:00:45.427Z,93667.00
2023-02-24T17:01:45.410Z,93663.00
2023-02-24T17:03:45.433Z,93665.00
2023-02-24T17:04:45.378Z,93663.00
2023-02-24T17:05:45.405Z,93663.00
2023-02-24T17:06:45.404Z,93667.00
2023-02-24T17:07:45.891Z,93665.00
2023-02-24T17:08:45.397Z,93663.00
2023-02-24T17:09:45.338Z,93667.00
2023-02-24T17:10:45.331Z,93665.00
2023-02-24T17:11:45.323Z,93663.00
2023-02-24T17:12:45.310Z,93665.00
2023-02-24T17:13:45.307Z,93665.00
2023-02-24T17:14:45.292Z,93665.00
2023-02-24T17:15:45.424Z,93665.00
2023-02-24T17:16:45.978Z,93665.00
2023-02-24T17:17:45.276Z,93667.00
2023-02-24T17:18:45.272Z,93669.00
2023-02-24T17:19:45.250Z,93671.00
2023-02-24T17:20:45.241Z,93673.00
2023-02-24T17:21:45.231Z,93673.00
2023-02-24T17:22:45.246Z,93673.00
2023-02-24T17:23:45.216Z,93671.00
2023-02-24T17:24:45.231Z,93673.00
2023-02-24T17:25:45.209Z,93671.00
2023-02-24T17:26:45.196Z,93671.00
2023-02-24T17:27:45.179Z,93667.00
2023-02-24T17:28:45.188Z,93669.00
2023-02-24T17:29:45.163Z,93669.00
2023-02-24T17:30:45.292Z,93671.00
2023-02-24T17:31:45.395Z,93671.00
2023-02-24T17:32:45.222Z,93671.00
2023-02-24T17:33:45.130Z,93667.00
2023-02-24T17:34:45.114Z,93669.00
2023-02-24T17:36:45.096Z,93667.00
2023-02-24T17:37:45.898Z,93663.00
2023-02-24T17:38:45.088Z,93663.00
2023-02-24T17:39:45.073Z,93663.00
2023-02-24T17:40:45.081Z,93661.00
2023-02-24T17:41:45.051Z,93655.00
2023-02-24T17:42:45.040Z,93651.00
2023-02-24T17:43:45.052Z,93647.00
2023-02-24T17:44:45.023Z,93645.00
2023-02-24T17:45:45.234Z,93645.00
2023-02-24T17:46:45.947Z,93645.00
2023-02-24T17:47:45.904Z,93649.00
2023-02-24T17:48:44.999Z,93653.00
2023-02-24T17:49:45.019Z,93653.00
2023-02-24T17:50:44.975Z,93655.00
2023-02-24T17:51:44.961Z,93655.00
2023-02-24T17:52:44.957Z,93653.00
2023-02-24T17:53:45.907Z,93651.00
2023-02-24T17:54:44.942Z,93649.00
2023-02-24T17:56:01.380Z,93645.00
2023-02-24T17:56:45.446Z,93645.00
2023-02-24T17:57:44.903Z,93643.00
2023-02-24T17:58:44.893Z,93641.00
2023-02-24T17:59:44.887Z,93641.00
2023-02-24T18:00:44.884Z,93641.00
2023-02-24T18:01:44.874Z,93641.00
2023-02-24T18:02:45.023Z,93641.00
2023-02-24T18:03:44.871Z,93639.00
2023-02-24T18:04:44.856Z,93637.00
2023-02-24T18:05:45.406Z,93639.00
2023-02-24T18:06:45.403Z,93636.00
2023-02-24T18:07:44.826Z,93636.00
2023-02-24T18:08:44.808Z,93636.00
2023-02-24T18:09:51.405Z,93634.00
2023-02-24T18:10:44.785Z,93634.00
2023-02-24T18:11:44.783Z,93634.00
2023-02-24T18:12:45.431Z,93637.00
2023-02-24T18:13:44.771Z,93636.00
2023-02-24T18:14:44.753Z,93636.00
2023-02-24T18:15:44.795Z,93636.00
2023-02-24T18:16:44.737Z,93637.00
2023-02-24T18:17:44.725Z,93637.00
2023-02-24T18:18:44.719Z,93636.00
2023-02-24T18:19:44.711Z,93634.00
2023-02-24T18:20:44.719Z,93636.00
2023-02-24T18:21:45.418Z,93637.00
2023-02-24T18:22:44.687Z,93636.00
2023-02-24T18:23:44.674Z,93636.00
2023-02-24T18:24:44.659Z,93637.00
2023-02-24T18:25:44.665Z,93634.00
2023-02-24T18:26:44.641Z,93634.00
2023-02-24T18:27:44.641Z,93637.00
2023-02-24T18:28:44.648Z,93636.00
2023-02-24T18:29:44.619Z,93637.00
2023-02-24T18:30:44.691Z,93636.00
2023-02-24T18:31:44.869Z,93636.00
2023-02-24T18:32:44.881Z,93632.00
2023-02-24T18:33:44.768Z,93632.00
2023-02-24T18:34:44.576Z,93630.00
2023-02-24T18:35:44.569Z,93632.00
2023-02-24T18:36:44.587Z,93628.00
2023-02-24T18:37:44.548Z,93630.00
2023-02-24T18:38:44.549Z,93628.00
2023-02-24T18:39:44.534Z,93624.00
2023-02-24T18:40:44.521Z,93624.00
2023-02-24T18:41:44.510Z,93624.00
2023-02-24T18:42:44.505Z,93626.00
2023-02-24T18:43:44.493Z,93626.00
2023-02-24T18:44:44.518Z,93626.00
2023-02-24T18:46:44.566Z,93630.00
2023-02-24T18:48:44.952Z,93632.00
2023-02-24T18:49:45.423Z,93632.00
2023-02-24T18:50:44.430Z,93634.00
2023-02-24T18:51:44.423Z,93630.00
2023-02-24T18:52:44.411Z,93628.00
2023-02-24T18:53:44.430Z,93628.00
2023-02-24T18:54:44.393Z,93630.00
2023-02-24T18:55:44.389Z,93628.00
2023-02-24T18:56:44.379Z,93628.00
2023-02-24T18:57:44.368Z,93632.00
2023-02-24T18:58:44.365Z,93634.00
2023-02-24T18:59:44.352Z,93632.00
2023-02-24T19:00:44.382Z,93630.00
2023-02-24T19:01:44.423Z,93630.00
2023-02-24T19:02:44.367Z,93630.00
2023-02-24T19:03:44.313Z,93632.00
2023-02-24T19:04:44.301Z,93632.00
2023-02-24T19:05:44.315Z,93632.00
2023-02-24T19:06:44.299Z,93634.00
2023-02-24T19:07:44.281Z,93632.00
2023-02-24T19:08:44.312Z,93630.00
2023-02-24T19:09:44.438Z,93632.00
2023-02-24T19:10:44.262Z,93626.00
2023-02-24T19:11:44.251Z,93624.00
2023-02-24T19:12:44.234Z,93628.00
2023-02-24T19:13:44.223Z,93622.00
2023-02-24T19:14:44.219Z,93624.00
2023-02-24T19:15:44.296Z,93624.00
2023-02-24T19:16:44.281Z,93620.00
2023-02-24T19:17:44.946Z,93622.00
2023-02-24T19:18:44.182Z,93620.00
2023-02-24T19:19:44.211Z,93620.00
2023-02-24T19:20:44.162Z,93622.00
2023-02-24T19:21:44.158Z,93628.00
2023-02-24T19:22:44.157Z,93628.00
2023-02-24T19:23:44.132Z,93634.00
2023-02-24T19:24:44.136Z,93637.00
2023-02-24T19:25:44.125Z,93643.00
2023-02-24T19:26:44.118Z,93637.00
2023-02-24T19:27:44.102Z,93639.00
2023-02-24T19:28:44.089Z,93637.00
2023-02-24T19:29:44.082Z,93632.00
2023-02-24T19:30:44.117Z,93636.00
2023-02-24T19:31:44.199Z,93639.00
2023-02-24T19:32:44.221Z,93634.00
2023-02-24T19:33:44.047Z,93636.00
2023-02-24T19:34:44.041Z,93637.00
2023-02-24T19:35:44.028Z,93641.00
2023-02-24T19:36:44.023Z,93641.00
2023-02-24T19:37:44.013Z,93641.00
2023-02-24T19:38:44.006Z,93641.00
2023-02-24T19:39:43.987Z,93643.00
2023-02-24T19:40:43.975Z,93639.00
2023-02-24T19:41:43.981Z,93639.00
2023-02-24T19:42:43.965Z,93645.00
2023-02-24T19:43:43.970Z,93643.00
2023-02-24T19:44:43.954Z,93651.00
2023-02-24T19:45:44.037Z,93657.00
2023-02-24T19:46:43.924Z,93653.00
2023-02-24T19:47:43.921Z,93657.00
2023-02-24T19:48:43.935Z,93653.00
2023-02-24T19:49:43.909Z,93663.00
2023-02-24T19:50:43.936Z,93657.00
2023-02-24T19:51:43.888Z,93653.00
2023-02-24T19:52:43.875Z,93659.00
2023-02-24T19:53:43.871Z,93657.00
2023-02-24T19:54:43.852Z,93655.00
2023-02-24T19:55:43.848Z,93655.00
2023-02-24T19:56:43.897Z,93657.00
2023-02-24T19:57:43.830Z,93655.00
2023-02-24T19:58:43.819Z,93663.00
2023-02-24T19:59:43.837Z,93661.00
2023-02-24T20:00:43.802Z,93663.00
2023-02-24T20:01:43.793Z,93663.00
2023-02-24T20:03:43.779Z,93661.00
2023-02-24T20:04:43.836Z,93663.00
2023-02-24T20:05:43.760Z,93661.00
2023-02-24T20:06:43.769Z,93665.00
2023-02-24T20:07:43.743Z,93665.00
2023-02-24T20:08:43.729Z,93661.00
2023-02-24T20:09:43.731Z,93663.00
2023-02-24T20:10:43.718Z,93665.00
2023-02-24T20:11:43.716Z,93665.00
2023-02-24T20:12:43.697Z,93665.00
2023-02-24T20:13:43.699Z,93663.00
2023-02-24T20:14:43.677Z,93665.00
2023-02-24T20:15:43.672Z,93665.00
2023-02-24T20:16:43.757Z,93663.00
2023-02-24T20:17:43.649Z,93659.00
2023-02-24T20:18:43.640Z,93659.00
2023-02-24T20:19:43.680Z,93657.00
2023-02-24T20:20:43.649Z,93657.00
2023-02-24T20:21:43.624Z,93659.00
2023-02-24T20:22:43.616Z,93657.00
2023-02-24T20:23:43.612Z,93657.00
2023-02-24T20:24:43.590Z,93655.00
2023-02-24T20:25:43.579Z,93653.00
2023-02-24T20:26:43.573Z,93653.00
2023-02-24T20:28:43.561Z,93651.00
2023-02-24T20:30:43.568Z,93651.00
2023-02-24T20:31:43.723Z,93649.00
2023-02-24T20:32:43.867Z,93651.00
2023-02-24T20:33:43.615Z,93649.00
2023-02-24T20:34:43.575Z,93651.00
2023-02-24T20:35:43.492Z,93655.00
2023-02-24T20:36:43.509Z,93659.00
2023-02-24T20:37:43.471Z,93657.00
2023-02-24T20:38:43.470Z,93655.00
2023-02-24T20:39:43.476Z,93657.00
2023-02-24T20:40:43.449Z,93657.00
2023-02-24T20:41:43.440Z,93655.00
2023-02-24T20:42:43.430Z,93655.00
2023-02-24T20:43:45.971Z,93655.00
2023-02-24T20:44:43.963Z,93661.00
2023-02-24T20:45:43.445Z,93661.00
2023-02-24T20:46:43.971Z,93663.00
2023-02-24T20:47:43.382Z,93665.00
2023-02-24T20:48:43.373Z,93665.00
2023-02-24T20:49:43.424Z,93661.00
2023-02-24T20:50:43.369Z,93663.00
2023-02-24T20:51:43.355Z,93657.00
2023-02-24T20:52:43.361Z,93655.00
2023-02-24T20:53:56.050Z,93655.00
2023-02-24T20:54:43.340Z,93657.00
2023-02-24T20:55:43.328Z,93651.00
2023-02-24T20:56:43.308Z,93636.00
2023-02-24T20:57:43.298Z,93632.00
2023-02-24T20:58:43.294Z,93620.00
2023-02-24T20:59:49.269Z,93606.00
2023-02-24T21:00:43.291Z,93614.00
2023-02-24T21:01:46.844Z,93618.00
2023-02-24T21:02:43.252Z,93624.00
2023-02-24T21:03:43.976Z,93624.00
2023-02-24T21:04:43.334Z,93626.00
2023-02-24T21:05:43.230Z,93628.00
2023-02-24T21:06:43.221Z,93628.00
2023-02-24T21:07:43.975Z,93626.00
2023-02-24T21:08:43.241Z,93626.00
2023-02-24T21:09:43.262Z,93622.00
2023-02-24T21:10:43.193Z,93620.00
2023-02-24T21:11:43.186Z,93620.00
2023-02-24T21:12:43.172Z,93616.00
2023-02-24T21:13:43.169Z,93606.00
2023-02-24T21:14:43.156Z,93602.00
2023-02-24T21:15:43.522Z,93602.00
2023-02-24T21:16:43.147Z,93600.00
2023-02-24T21:17:43.132Z,93598.00
2023-02-24T21:18:43.112Z,93594.00
2023-02-24T21:19:43.104Z,93589.00
2023-02-24T21:20:43.100Z,93583.00
2023-02-24T21:21:43.089Z,93577.00
2023-02-24T21:23:43.081Z,93571.00
2023-02-24T21:24:43.093Z,93569.00
2023-02-24T21:25:43.050Z,93569.00
2023-02-24T21:26:43.986Z,93571.00
2023-02-24T21:27:43.025Z,93567.00
2023-02-24T21:28:43.025Z,93565.00
2023-02-24T21:29:43.978Z,93561.00
2023-02-24T21:30:46.043Z,93557.00
2023-02-24T21:31:43.252Z,93555.00
2023-02-24T21:32:43.098Z,93551.00
2023-02-24T21:33:42.994Z,93547.00
2023-02-24T21:34:42.967Z,93544.00
2023-02-24T21:35:42.960Z,93538.00
2023-02-24T21:36:42.951Z,93536.00
2023-02-24T21:37:42.936Z,93534.00
2023-02-24T21:38:43.479Z,93534.00
2023-02-24T21:39:42.936Z,93536.00
2023-02-24T21:40:42.937Z,93538.00
2023-02-24T21:41:42.958Z,93540.00
2023-02-24T21:42:42.893Z,93542.00
2023-02-24T21:43:42.886Z,93542.00
2023-02-24T21:44:44.545Z,93540.00
2023-02-24T21:45:42.866Z,93542.00
2023-02-24T21:46:42.906Z,93538.00
2023-02-24T21:47:42.850Z,93536.00
2023-02-24T21:48:42.845Z,93534.00
2023-02-24T21:49:42.834Z,93534.00
2023-02-24T21:50:42.831Z,93538.00
2023-02-24T21:51:42.816Z,93534.00
2023-02-24T21:52:42.808Z,93536.00
2023-02-24T21:53:42.800Z,93534.00
2023-02-24T21:54:42.791Z,93534.00
2023-02-24T21:55:42.790Z,93532.00
2023-02-24T21:56:42.819Z,93532.00
2023-02-24T21:57:42.764Z,93534.00
2023-02-24T21:58:43.490Z,93536.00
2023-02-24T21:59:43.485Z,93534.00
2023-02-24T22:00:42.740Z,93534.00
2023-02-24T22:01:42.810Z,93536.00
2023-02-24T22:02:42.718Z,93532.00
2023-02-24T22:03:42.713Z,93536.00
2023-02-24T22:04:42.705Z,93540.00
2023-02-24T22:05:42.694Z,93536.00
2023-02-24T22:06:42.690Z,93538.00
2023-02-24T22:07:42.676Z,93538.00
2023-02-24T22:08:42.667Z,93538.00
2023-02-24T22:09:42.658Z,93536.00
2023-02-24T22:10:42.659Z,93532.00
2023-02-24T22:11:42.634Z,93534.00
2023-02-24T22:12:42.666Z,93530.00
2023-02-24T22:13:42.617Z,93534.00
2023-02-24T22:14:42.615Z,93534.00
2023-02-24T22:15:42.729Z,93538.00
2023-02-24T22:16:42.607Z,93538.00
2023-02-24T22:17:42.595Z,93538.00
2023-02-24T22:18:42.574Z,93538.00
2023-02-24T22:19:42.569Z,93545.00
2023-02-24T22:20:42.556Z,93549.00
2023-02-24T22:21:42.716Z,93547.00
2023-02-24T22:22:42.544Z,93547.00
2023-02-24T22:23:42.539Z,93549.00
2023-02-24T22:24:42.525Z,93545.00
2023-02-24T22:25:42.520Z,93538.00
2023-02-24T22:26:42.508Z,93540.00
2023-02-24T22:27:42.494Z,93540.00
2023-02-24T22:28:42.528Z,93540.00
2023-02-24T22:29:42.480Z,93540.00
2023-02-24T22:30:42.506Z,93542.00
2023-02-24T22:31:42.587Z,93542.00
2023-02-24T22:32:42.560Z,93540.00
2023-02-24T22:33:42.451Z,93540.00
2023-02-24T22:34:42.437Z,93544.00
2023-02-24T22:35:42.427Z,93540.00
2023-02-24T22:36:42.415Z,93540.00
2023-02-24T22:37:42.407Z,93544.00
2023-02-24T22:38:42.405Z,93540.00
2023-02-24T22:39:42.398Z,93542.00
2023-02-24T22:40:42.384Z,93540.00
2023-02-24T22:41:42.380Z,93542.00
2023-02-24T22:42:42.365Z,93540.00
2023-02-24T22:43:42.353Z,93538.00
2023-02-24T22:44:42.370Z,93536.00
2023-02-24T22:45:42.342Z,93536.00
2023-02-24T22:46:42.399Z,93538.00
2023-02-24T22:47:42.402Z,93538.00
2023-02-24T22:48:42.307Z,93530.00
2023-02-24T22:49:42.300Z,93536.00
2023-02-24T22:50:42.299Z,93538.00
2023-02-24T22:51:42.289Z,93542.00
2023-02-24T22:52:42.281Z,93545.00
2023-02-24T22:53:42.271Z,93547.00
2023-02-24T22:54:42.258Z,93545.00
2023-02-24T22:55:43.014Z,93544.00
2023-02-24T22:56:42.267Z,93538.00
2023-02-24T22:57:42.230Z,93540.00
2023-02-24T22:58:42.225Z,93542.00
2023-02-24T22:59:42.213Z,93538.00
2023-02-24T23:00:42.277Z,93544.00
2023-02-24T23:01:42.204Z,93542.00
2023-02-24T23:02:42.194Z,93547.00
2023-02-24T23:03:42.195Z,93547.00
2023-02-24T23:04:42.172Z,93545.00
2023-02-24T23:05:42.164Z,93538.00
2023-02-24T23:06:42.151Z,93534.00
2023-02-24T23:07:42.145Z,93530.00
2023-02-24T23:08:42.166Z,93526.00
2023-02-24T23:09:42.128Z,93530.00
2023-02-24T23:11:42.115Z,93526.00
2023-02-24T23:13:42.091Z,93522.00
